Time,TemperatureF,DewpointF,PressureIn,WindDirection,WindDirectionDegrees,WindSpeedMPH,WindSpeedGustMPH,Humidity,HourlyPrecipIn,Conditions,Clouds,dailyrainin,SoftwareType,DateUTC
2013-06-13 00:12:00,45.3,23.0,29.90,ESE,111,0.0,-999.0,42,-99.99,,,0.00,weatherlink.com 1.10,2013-06-13 06:12:00,
2013-06-13 00:27:00,44.8,23.0,29.90,ESE,111,0.0,-999.0,42,-99.99,,,0.00,weatherlink.com 1.10,2013-06-13 06:27:00,
2013-06-13 00:42:00,44.3,22.0,29.90,ESE,111,0.0,-999.0,41,-99.99,,,0.00,weatherlink.com 1.10,2013-06-13 06:42:00,
2013-06-13 00:57:00,43.8,22.0,29.90,ESE,111,0.0,-999.0,42,-99.99,,,0.00,weatherlink.com 1.10,2013-06-13 06:57:00,
2013-06-13 01:12:00,43.6,22.0,29.89,ESE,111,0.0,-999.0,42,-99.99,,,0.00,weatherlink.com 1.10,2013-06-13 07:12:00,
2013-06-13 01:27:00,43.4,22.0,29.90,ESE,111,0.0,-999.0,42,-99.99,,,0.00,weatherlink.com 1.10,2013-06-13 07:27:00,
2013-06-13 01:42:00,44.0,20.0,29.90,ESE,111,0.0,-999.0,39,-99.99,,,0.00,weatherlink.com 1.10,2013-06-13 07:42:00,
2013-06-13 01:57:00,44.2,21.0,29.91,ESE,111,0.0,-999.0,40,-99.99,,,0.00,weatherlink.com 1.10,2013-06-13 07:57:00,
2013-06-13 02:12:00,43.8,21.0,29.91,ESE,111,0.0,-999.0,40,-99.99,,,0.00,weatherlink.com 1.10,2013-06-13 08:12:00,
2013-06-13 02:27:00,43.8,21.0,29.91,ESE,111,0.0,-999.0,40,-99.99,,,0.00,weatherlink.com 1.10,2013-06-13 08:27:00,
2013-06-13 02:42:00,44.8,20.0,29.91,ESE,111,0.0,-999.0,38,-99.99,,,0.00,weatherlink.com 1.10,2013-06-13 08:42:00,
2013-06-13 02:57:00,45.0,21.0,29.91,ESE,111,0.0,-999.0,39,-99.99,,,0.00,weatherlink.com 1.10,2013-06-13 08:57:00,
2013-06-13 03:12:00,44.7,22.0,29.91,ESE,111,0.0,-999.0,40,-99.99,,,0.00,weatherlink.com 1.10,2013-06-13 09:12:00,
2013-06-13 03:27:00,44.2,21.0,29.91,ESE,111,0.0,-999.0,40,-99.99,,,0.00,weatherlink.com 1.10,2013-06-13 09:27:00,
2013-06-13 03:42:00,43.4,21.0,29.91,ESE,111,0.0,-999.0,41,-99.99,,,0.00,weatherlink.com 1.10,2013-06-13 09:42:00,
2013-06-13 03:57:00,42.8,22.0,29.92,ESE,111,0.0,-999.0,43,-99.99,,,0.00,weatherlink.com 1.10,2013-06-13 09:57:00,
2013-06-13 04:12:00,41.9,21.0,29.92,ESE,111,0.0,-999.0,43,-99.99,,,0.00,weatherlink.com 1.10,2013-06-13 10:12:00,
2013-06-13 04:27:00,40.7,21.0,29.92,ESE,111,0.0,-999.0,45,-99.99,,,0.00,weatherlink.com 1.10,2013-06-13 10:27:00,
2013-06-13 04:42:00,40.0,21.0,29.93,ESE,111,0.0,-999.0,46,-99.99,,,0.00,weatherlink.com 1.10,2013-06-13 10:42:00,
2013-06-13 04:57:00,39.0,21.0,29.93,ESE,111,0.0,-999.0,48,-99.99,,,0.00,weatherlink.com 1.10,2013-06-13 10:57:00,
2013-06-13 05:12:00,38.0,21.0,29.94,ESE,111,0.0,-999.0,50,-99.99,,,0.00,weatherlink.com 1.10,2013-06-13 11:12:00,
2013-06-13 05:27:00,37.4,21.0,29.93,ESE,111,0.0,-999.0,51,-99.99,,,0.00,weatherlink.com 1.10,2013-06-13 11:27:00,
2013-06-13 05:42:00,37.1,21.0,29.92,ESE,111,0.0,-999.0,53,-99.99,,,0.00,weatherlink.com 1.10,2013-06-13 11:42:00,
2013-06-13 05:57:00,37.9,22.0,29.93,ESE,111,0.0,-999.0,53,-99.99,,,0.00,weatherlink.com 1.10,2013-06-13 11:57:00,
2013-06-13 06:12:00,39.6,23.0,29.93,ESE,111,0.0,-999.0,52,-99.99,,,0.00,weatherlink.com 1.10,2013-06-13 12:12:00,
2013-06-13 06:27:00,41.7,24.0,29.93,ESE,111,0.0,-999.0,50,-99.99,,,0.00,weatherlink.com 1.10,2013-06-13 12:27:00,
2013-06-13 06:42:00,43.4,27.0,29.93,ESE,111,0.0,-999.0,52,-99.99,,,0.00,weatherlink.com 1.10,2013-06-13 12:42:00,
2013-06-13 06:57:00,44.4,29.0,29.92,ESE,111,0.0,-999.0,54,-99.99,,,0.00,weatherlink.com 1.10,2013-06-13 12:57:00,
2013-06-13 07:12:00,45.8,29.0,29.91,ESE,111,0.0,-999.0,53,-99.99,,,0.00,weatherlink.com 1.10,2013-06-13 13:12:00,
2013-06-13 07:27:00,47.7,31.0,29.91,ESE,111,0.0,-999.0,53,-99.99,,,0.00,weatherlink.com 1.10,2013-06-13 13:27:00,
2013-06-13 07:42:00,49.3,33.0,29.91,ESE,111,0.0,-999.0,54,-99.99,,,0.00,weatherlink.com 1.10,2013-06-13 13:42:00,
2013-06-13 07:57:00,49.9,32.0,29.91,ESE,111,0.0,-999.0,50,-99.99,,,0.00,weatherlink.com 1.10,2013-06-13 13:57:00,
2013-06-13 08:12:00,51.5,29.0,29.91,ESE,111,0.0,-999.0,43,-99.99,,,0.00,weatherlink.com 1.10,2013-06-13 14:12:00,
2013-06-13 08:27:00,54.4,30.0,29.91,ESE,111,0.0,-999.0,40,-99.99,,,0.00,weatherlink.com 1.10,2013-06-13 14:27:00,
2013-06-13 08:42:00,56.5,31.0,29.91,ESE,111,0.0,-999.0,38,-99.99,,,0.00,weatherlink.com 1.10,2013-06-13 14:42:00,
2013-06-13 08:57:00,58.7,32.0,29.91,ESE,120,2.0,-999.0,37,-99.99,,,0.00,weatherlink.com 1.10,2013-06-13 14:57:00,
2013-06-13 09:12:00,60.7,30.0,29.91,West,273,0.0,-999.0,32,-99.99,,,0.00,weatherlink.com 1.10,2013-06-13 15:12:00,
2013-06-13 09:27:00,62.0,31.0,29.91,SW,229,2.0,-999.0,31,-99.99,,,0.00,weatherlink.com 1.10,2013-06-13 15:27:00,
2013-06-13 09:42:00,63.0,31.0,29.91,WNW,288,1.0,-999.0,30,-99.99,,,0.00,weatherlink.com 1.10,2013-06-13 15:42:00,
2013-06-13 09:57:00,64.3,30.0,29.89,West,278,2.0,-999.0,28,-99.99,,,0.00,weatherlink.com 1.10,2013-06-13 15:57:00,
2013-06-13 10:12:00,65.3,32.0,29.89,West,278,0.0,-999.0,29,-99.99,,,0.00,weatherlink.com 1.10,2013-06-13 16:12:00,
2013-06-13 10:27:00,66.2,33.0,29.89,NE,51,4.0,-999.0,29,-99.99,,,0.00,weatherlink.com 1.10,2013-06-13 16:27:00,
2013-06-13 10:42:00,68.3,31.0,29.89,NE,40,6.0,-999.0,25,-99.99,,,0.00,weatherlink.com 1.10,2013-06-13 16:42:00,
2013-06-13 10:57:00,69.5,30.0,29.88,NNE,13,0.0,-999.0,23,-99.99,,,0.00,weatherlink.com 1.10,2013-06-13 16:57:00,
2013-06-13 11:12:00,69.7,30.0,29.87,NE,50,2.0,-999.0,23,-99.99,,,0.00,weatherlink.com 1.10,2013-06-13 17:12:00,
2013-06-13 11:27:00,69.4,30.0,29.87,South,184,2.0,-999.0,23,-99.99,,,0.00,weatherlink.com 1.10,2013-06-13 17:27:00,
2013-06-13 11:42:00,68.1,30.0,29.87,ESE,115,0.0,-999.0,24,-99.99,,,0.00,weatherlink.com 1.10,2013-06-13 17:42:00,
2013-06-13 11:57:00,68.5,28.0,29.87,NNE,18,4.0,-999.0,22,-99.99,,,0.00,weatherlink.com 1.10,2013-06-13 17:57:00,
2013-06-13 12:12:00,68.3,28.0,29.87,ESE,120,4.0,-999.0,22,-99.99,,,0.00,weatherlink.com 1.10,2013-06-13 18:12:00,
2013-06-13 12:27:00,68.3,28.0,29.85,East,88,1.0,-999.0,22,-99.99,,,0.00,weatherlink.com 1.10,2013-06-13 18:27:00,
2013-06-13 12:42:00,69.4,29.0,29.85,ESE,113,0.0,-999.0,22,-99.99,,,0.00,weatherlink.com 1.10,2013-06-13 18:42:00,
2013-06-13 12:57:00,71.3,30.0,29.85,SE,133,1.0,-999.0,22,-99.99,,,0.00,weatherlink.com 1.10,2013-06-13 18:57:00,
2013-06-13 13:12:00,71.1,28.0,29.86,NE,52,5.0,-999.0,20,-99.99,,,0.00,weatherlink.com 1.10,2013-06-13 19:12:00,
2013-06-13 13:27:00,71.3,28.0,29.84,East,85,4.0,-999.0,20,-99.99,,,0.00,weatherlink.com 1.10,2013-06-13 19:27:00,
2013-06-13 13:42:00,71.3,28.0,29.84,ESE,108,2.0,-999.0,20,-99.99,,,0.00,weatherlink.com 1.10,2013-06-13 19:42:00,
2013-06-13 13:57:00,70.4,29.0,29.84,ESE,121,2.0,-999.0,21,-99.99,,,0.00,weatherlink.com 1.10,2013-06-13 19:57:00,
2013-06-13 14:12:00,67.4,30.0,29.85,NNE,32,2.0,-999.0,25,-99.99,,,0.00,weatherlink.com 1.10,2013-06-13 20:12:00,
2013-06-13 14:27:00,66.7,30.0,29.85,ENE,67,7.0,-999.0,25,-99.99,,,0.00,weatherlink.com 1.10,2013-06-13 20:27:00,
2013-06-13 14:42:00,69.1,31.0,29.84,East,90,4.0,-999.0,24,-99.99,,,0.00,weatherlink.com 1.10,2013-06-13 20:42:00,
2013-06-13 14:57:00,69.1,31.0,29.83,NNE,22,6.0,-999.0,24,-99.99,,,0.00,weatherlink.com 1.10,2013-06-13 20:57:00,
2013-06-13 15:12:00,68.0,31.0,29.83,ESE,105,1.0,-999.0,25,-99.99,,,0.00,weatherlink.com 1.10,2013-06-13 21:12:00,
2013-06-13 15:27:00,69.8,32.0,29.82,ENE,76,0.0,-999.0,25,-99.99,,,0.00,weatherlink.com 1.10,2013-06-13 21:27:00,
2013-06-13 15:42:00,70.2,31.0,29.82,ENE,57,5.0,-999.0,23,-99.99,,,0.00,weatherlink.com 1.10,2013-06-13 21:42:00,
2013-06-13 15:57:00,69.9,30.0,29.82,ENE,58,0.0,-999.0,23,-99.99,,,0.00,weatherlink.com 1.10,2013-06-13 21:57:00,
2013-06-13 16:12:00,67.9,30.0,29.82,ESE,109,4.0,-999.0,24,-99.99,,,0.00,weatherlink.com 1.10,2013-06-13 22:12:00,
2013-06-13 16:27:00,62.1,31.0,29.83,ESE,118,5.0,-999.0,31,-99.99,,,0.00,weatherlink.com 1.10,2013-06-13 22:27:00,
2013-06-13 16:42:00,64.2,32.0,29.82,SSE,147,1.0,-999.0,30,-99.99,,,0.00,weatherlink.com 1.10,2013-06-13 22:42:00,
2013-06-13 16:57:00,66.3,30.0,29.81,East,95,0.0,-999.0,26,-99.99,,,0.00,weatherlink.com 1.10,2013-06-13 22:57:00,
2013-06-13 17:12:00,66.6,31.0,29.81,ESE,103,2.0,-999.0,26,-99.99,,,0.00,weatherlink.com 1.10,2013-06-13 23:12:00,
2013-06-13 17:27:00,66.4,32.0,29.80,East,94,0.0,-999.0,28,-99.99,,,0.00,weatherlink.com 1.10,2013-06-13 23:27:00,
2013-06-13 17:42:00,67.0,31.0,29.79,East,95,0.0,-999.0,26,-99.99,,,0.00,weatherlink.com 1.10,2013-06-13 23:42:00,
2013-06-13 17:57:00,67.4,30.0,29.80,East,81,1.0,-999.0,25,-99.99,,,0.00,weatherlink.com 1.10,2013-06-13 23:57:00,
2013-06-13 18:12:00,65.8,32.0,29.80,NNE,32,4.0,-999.0,28,-99.99,,,0.00,weatherlink.com 1.10,2013-06-14 00:12:00,
2013-06-13 18:27:00,63.9,32.0,29.80,SSE,147,0.0,-999.0,30,-99.99,,,0.00,weatherlink.com 1.10,2013-06-14 00:27:00,
2013-06-13 18:42:00,62.9,32.0,29.79,SW,216,2.0,-999.0,31,-99.99,,,0.00,weatherlink.com 1.10,2013-06-14 00:42:00,
2013-06-13 18:57:00,62.0,32.0,29.80,South,180,0.0,-999.0,33,-99.99,,,0.00,weatherlink.com 1.10,2013-06-14 00:57:00,
2013-06-13 19:12:00,61.2,32.0,29.79,South,180,0.0,-999.0,33,-99.99,,,0.00,weatherlink.com 1.10,2013-06-14 01:12:00,
2013-06-13 19:27:00,60.8,31.0,29.79,South,182,0.0,-999.0,32,-99.99,,,0.00,weatherlink.com 1.10,2013-06-14 01:27:00,
2013-06-13 19:42:00,60.6,28.0,29.80,NE,51,0.0,-999.0,29,-99.99,,,0.00,weatherlink.com 1.10,2013-06-14 01:42:00,
2013-06-13 19:57:00,60.6,27.0,29.80,East,96,0.0,-999.0,28,-99.99,,,0.00,weatherlink.com 1.10,2013-06-14 01:57:00,
2013-06-13 20:12:00,60.3,28.0,29.82,West,261,0.0,-999.0,29,-99.99,,,0.00,weatherlink.com 1.10,2013-06-14 02:12:00,
2013-06-13 20:27:00,58.0,32.0,29.82,WNW,294,0.0,-999.0,37,-99.99,,,0.00,weatherlink.com 1.10,2013-06-14 02:27:00,
2013-06-13 20:42:00,55.0,36.0,29.83,East,97,0.0,-999.0,50,-99.99,,,0.00,weatherlink.com 1.10,2013-06-14 02:42:00,
2013-06-13 20:57:00,52.1,37.0,29.83,SW,226,0.0,-999.0,57,-99.99,,,0.00,weatherlink.com 1.10,2013-06-14 02:57:00,
2013-06-13 21:12:00,50.4,37.0,29.84,East,87,0.0,-999.0,61,-99.99,,,0.00,weatherlink.com 1.10,2013-06-14 03:12:00,
2013-06-13 21:27:00,49.1,37.0,29.83,East,87,0.0,-999.0,63,-99.99,,,0.00,weatherlink.com 1.10,2013-06-14 03:27:00,
2013-06-13 21:42:00,47.9,36.0,29.84,East,87,0.0,-999.0,64,-99.99,,,0.00,weatherlink.com 1.10,2013-06-14 03:42:00,
2013-06-13 21:57:00,47.0,36.0,29.84,East,87,0.0,-999.0,65,-99.99,,,0.00,weatherlink.com 1.10,2013-06-14 03:57:00,
2013-06-13 22:12:00,46.5,36.0,29.86,East,87,0.0,-999.0,67,-99.99,,,0.00,weatherlink.com 1.10,2013-06-14 04:12:00,
2013-06-13 22:27:00,46.5,36.0,29.86,East,87,0.0,-999.0,67,-99.99,,,0.00,weatherlink.com 1.10,2013-06-14 04:27:00,
2013-06-13 22:42:00,46.6,36.0,29.87,East,87,0.0,-999.0,66,-99.99,,,0.00,weatherlink.com 1.10,2013-06-14 04:42:00,
2013-06-13 22:57:00,47.1,36.0,29.92,ESE,102,6.0,-999.0,65,-99.99,,,0.00,weatherlink.com 1.10,2013-06-14 04:57:00,
2013-06-13 23:12:00,47.2,37.0,29.86,East,84,0.0,-999.0,69,-99.99,,,0.00,weatherlink.com 1.10,2013-06-14 05:12:00,
2013-06-13 23:27:00,46.9,37.0,29.90,East,84,0.0,-999.0,68,-99.99,,,0.00,weatherlink.com 1.10,2013-06-14 05:27:00,
2013-06-13 23:42:00,47.3,36.0,29.87,SSW,210,0.0,-999.0,64,-99.99,,,0.00,weatherlink.com 1.10,2013-06-14 05:42:00,
2013-06-13 23:57:00,48.2,33.0,29.86,East,98,0.0,-999.0,57,-99.99,,,0.00,weatherlink.com 1.10,2013-06-14 05:57:00,